Time;durP1;ratioP1;P1;durP2;ratioP2;P2;SDS_P1;SDS_P2;PMS_P1;PMS_P2;Temp;Humidity;BMP_temperature;BMP_pressure;BME280_temperature;BME280_humidity;BME280_pressure;Samples;Min_cycle;Max_cycle;Signal;HPM_P1;HPM_P2
2023/12/15 00:02:22;;;;;;;57.13;49.58;;;;;;;;;;4991797;28;20044;-72
2023/12/15 00:04:47;;;;;;;60.70;51.40;;;;;;;;;;4974761;28;20029;-72
2023/12/15 00:07:12;;;;;;;94.55;78.22;;;;;;;;;;4989427;28;20038;-72
2023/12/15 00:09:38;;;;;;;107.53;88.10;;;;;;;;;;4992271;28;20022;-72
2023/12/15 00:12:03;;;;;;;99.10;75.50;;;;;;;;;;4988099;28;20112;-73
2023/12/15 00:14:29;;;;;;;82.93;66.93;;;;;;;;;;4985587;28;20061;-75
2023/12/15 00:16:54;;;;;;;88.13;68.55;;;;;;;;;;4966038;28;20138;-73
2023/12/15 00:19:19;;;;;;;79.88;61.42;;;;;;;;;;4988884;28;20030;-73
2023/12/15 00:21:45;;;;;;;76.00;62.10;;;;;;;;;;4991508;28;20042;-74
2023/12/15 00:24:10;;;;;;;69.05;59.72;;;;;;;;;;4988939;28;20022;-72
2023/12/15 00:26:36;;;;;;;55.05;49.13;;;;;;;;;;4990843;28;20038;-73
2023/12/15 00:29:04;;;;;;;46.75;39.78;;;;;;;;;;4989592;28;20076;-72
2023/12/15 00:31:29;;;;;;;63.78;53.90;;;;;;;;;;4990790;28;20029;-73
2023/12/15 00:33:54;;;;;;;49.17;43.00;;;;;;;;;;4976723;28;20030;-75
2023/12/15 00:36:20;;;;;;;59.17;50.40;;;;;;;;;;4987643;28;20033;-72
2023/12/15 00:38:45;;;;;;;68.72;59.50;;;;;;;;;;4990671;28;20026;-71
2023/12/15 00:41:10;;;;;;;64.03;54.33;;;;;;;;;;4991225;28;20029;-71
2023/12/15 00:43:36;;;;;;;76.53;62.67;;;;;;;;;;4988824;28;20034;-72
2023/12/15 00:46:01;;;;;;;64.25;52.92;;;;;;;;;;4993259;28;20034;-72
2023/12/15 00:48:27;;;;;;;58.10;45.75;;;;;;;;;;4989040;28;20457;-72
2023/12/15 00:50:52;;;;;;;56.03;47.80;;;;;;;;;;4990377;28;20030;-74
2023/12/15 00:53:18;;;;;;;35.50;31.83;;;;;;;;;;4978078;28;20041;-72
2023/12/15 00:55:43;;;;;;;27.95;25.05;;;;;;;;;;4983612;28;20536;-72
2023/12/15 00:58:08;;;;;;;19.65;17.48;;;;;;;;;;4975490;28;20037;-74
2023/12/15 01:00:33;;;;;;;19.98;17.85;;;;;;;;;;4990200;28;21152;-75
2023/12/15 01:02:59;;;;;;;19.08;17.30;;;;;;;;;;4981343;28;20117;-72
2023/12/15 01:05:24;;;;;;;18.70;16.75;;;;;;;;;;4984183;28;20071;-71
2023/12/15 01:07:49;;;;;;;22.30;17.27;;;;;;;;;;4990493;28;20054;-73
2023/12/15 01:10:15;;;;;;;18.15;16.25;;;;;;;;;;4983479;28;20062;-70
2023/12/15 01:12:40;;;;;;;16.15;14.65;;;;;;;;;;4979618;28;20026;-71
2023/12/15 01:15:06;;;;;;;15.63;14.02;;;;;;;;;;4979297;28;20018;-70
2023/12/15 01:17:31;;;;;;;18.23;13.82;;;;;;;;;;4952110;28;20053;-72
2023/12/15 01:19:56;;;;;;;15.43;13.70;;;;;;;;;;4950848;28;20038;-73
2023/12/15 01:22:22;;;;;;;14.80;13.40;;;;;;;;;;4969272;28;20050;-74
2023/12/15 01:24:47;;;;;;;14.57;13.18;;;;;;;;;;4976596;28;20034;-72
2023/12/15 01:27:12;;;;;;;14.18;12.88;;;;;;;;;;4950909;28;20060;-74
2023/12/15 01:29:38;;;;;;;13.73;12.52;;;;;;;;;;4972383;28;20039;-72
2023/12/15 01:32:03;;;;;;;14.57;13.18;;;;;;;;;;4978391;28;20042;-72
2023/12/15 01:34:29;;;;;;;13.70;12.40;;;;;;;;;;4976257;28;20045;-74
2023/12/15 01:36:54;;;;;;;14.73;13.32;;;;;;;;;;4978056;28;20030;-71
2023/12/15 01:39:19;;;;;;;14.68;13.18;;;;;;;;;;4978146;28;20038;-74
2023/12/15 01:41:45;;;;;;;14.70;13.32;;;;;;;;;;4977594;28;20042;-73
2023/12/15 01:44:10;;;;;;;14.02;12.73;;;;;;;;;;4975804;28;20023;-71
2023/12/15 01:46:35;;;;;;;10.15;9.15;;;;;;;;;;4977631;28;20077;-71
2023/12/15 01:49:01;;;;;;;14.25;12.73;;;;;;;;;;4967549;28;20093;-73
2023/12/15 01:51:26;;;;;;;16.00;14.35;;;;;;;;;;4966430;28;20038;-72
2023/12/15 01:53:51;;;;;;;15.63;13.20;;;;;;;;;;4975566;28;20065;-72
2023/12/15 01:56:17;;;;;;;18.80;14.93;;;;;;;;;;4988904;28;20354;-71
2023/12/15 01:58:42;;;;;;;14.90;12.27;;;;;;;;;;4986641;28;20037;-72
2023/12/15 02:01:09;;;;;;;11.90;10.38;;;;;;;;;;4988566;28;20129;-74
2023/12/15 02:03:34;;;;;;;10.38;9.35;;;;;;;;;;4987611;28;20041;-71
2023/12/15 02:06:00;;;;;;;10.88;9.77;;;;;;;;;;4978178;28;20326;-75
2023/12/15 02:08:25;;;;;;;13.77;12.05;;;;;;;;;;4988714;28;20822;-73
2023/12/15 02:10:51;;;;;;;11.68;10.23;;;;;;;;;;4989216;28;20022;-73
2023/12/15 02:13:16;;;;;;;11.52;9.38;;;;;;;;;;4989222;28;20022;-73
2023/12/15 02:15:42;;;;;;;11.02;9.68;;;;;;;;;;4986919;28;20026;-72
2023/12/15 02:18:07;;;;;;;11.02;9.85;;;;;;;;;;4987566;28;20125;-71
2023/12/15 02:20:32;;;;;;;10.65;9.55;;;;;;;;;;4989041;28;20026;-72
2023/12/15 02:22:59;;;;;;;11.73;10.52;;;;;;;;;;4987354;28;20036;-72
2023/12/15 02:25:24;;;;;;;12.07;10.95;;;;;;;;;;4975037;28;20018;-74
2023/12/15 02:27:49;;;;;;;12.68;11.38;;;;;;;;;;4988378;28;20050;-72
2023/12/15 02:30:15;;;;;;;11.75;10.65;;;;;;;;;;4975859;28;20481;-73
2023/12/15 02:32:40;;;;;;;11.63;10.52;;;;;;;;;;4984546;28;20109;-71
2023/12/15 02:35:06;;;;;;;12.93;11.63;;;;;;;;;;4987681;28;20033;-73
2023/12/15 02:37:31;;;;;;;14.00;12.70;;;;;;;;;;4986582;28;20030;-73
2023/12/15 02:39:57;;;;;;;14.55;13.05;;;;;;;;;;4987687;28;20069;-73
2023/12/15 02:42:23;;;;;;;13.77;12.48;;;;;;;;;;4988373;28;20120;-72
2023/12/15 02:44:48;;;;;;;14.40;13.00;;;;;;;;;;4981865;28;20053;-72
2023/12/15 02:47:13;;;;;;;15.88;14.27;;;;;;;;;;4989006;28;20034;-73
2023/12/15 02:49:39;;;;;;;14.85;13.45;;;;;;;;;;4986449;28;20576;-73
2023/12/15 02:52:04;;;;;;;16.98;15.25;;;;;;;;;;4988468;28;20026;-72
2023/12/15 02:54:30;;;;;;;14.82;13.02;;;;;;;;;;4989939;28;20512;-71
2023/12/15 02:56:55;;;;;;;15.98;14.35;;;;;;;;;;4989739;28;20142;-70
2023/12/15 02:59:21;;;;;;;13.82;12.52;;;;;;;;;;4993002;28;20033;-73
2023/12/15 03:01:46;;;;;;;14.10;12.52;;;;;;;;;;4976919;28;20037;-72
2023/12/15 03:04:11;;;;;;;13.55;12.25;;;;;;;;;;4988583;28;20026;-72
2023/12/15 03:06:37;;;;;;;14.57;13.07;;;;;;;;;;4994729;28;20525;-71
2023/12/15 03:09:02;;;;;;;16.13;14.57;;;;;;;;;;4991857;28;20050;-73
2023/12/15 03:11:27;;;;;;;16.83;15.13;;;;;;;;;;4992064;28;20037;-72
2023/12/15 03:13:53;;;;;;;16.33;14.63;;;;;;;;;;4961742;28;21104;-74
2023/12/15 03:16:19;;;;;;;18.85;16.95;;;;;;;;;;4984165;28;20041;-73
2023/12/15 03:18:45;;;;;;;20.77;18.35;;;;;;;;;;4988875;28;20030;-74
2023/12/15 03:21:10;;;;;;;21.35;17.67;;;;;;;;;;4991907;28;20073;-73
2023/12/15 03:23:35;;;;;;;18.52;16.65;;;;;;;;;;4987737;28;20026;-73
2023/12/15 03:26:01;;;;;;;19.63;17.73;;;;;;;;;;4979254;28;20061;-72
2023/12/15 03:28:26;;;;;;;24.77;22.27;;;;;;;;;;4989948;28;20034;-71
2023/12/15 03:30:51;;;;;;;26.75;23.83;;;;;;;;;;4982742;28;20037;-70
2023/12/15 03:33:17;;;;;;;24.73;21.45;;;;;;;;;;4965601;28;20026;-75
2023/12/15 03:35:42;;;;;;;22.05;19.65;;;;;;;;;;4990238;28;20030;-73
2023/12/15 03:38:09;;;;;;;24.98;21.25;;;;;;;;;;4992799;28;20470;-71
2023/12/15 03:40:34;;;;;;;17.33;14.90;;;;;;;;;;4989150;28;20027;-71
2023/12/15 03:42:59;;;;;;;19.55;15.95;;;;;;;;;;4990226;28;20113;-70
2023/12/15 03:45:25;;;;;;;17.50;15.75;;;;;;;;;;4988053;28;20088;-71
2023/12/15 03:47:51;;;;;;;14.18;12.77;;;;;;;;;;4989213;28;20034;-73
2023/12/15 03:50:16;;;;;;;12.80;11.60;;;;;;;;;;4992105;28;20025;-70
2023/12/15 03:52:41;;;;;;;13.27;11.98;;;;;;;;;;4989411;28;20022;-72
2023/12/15 03:55:07;;;;;;;18.52;16.63;;;;;;;;;;4987529;28;20018;-72
2023/12/15 03:57:32;;;;;;;66.10;50.53;;;;;;;;;;4988076;28;20484;-70
2023/12/15 03:59:57;;;;;;;21.92;19.58;;;;;;;;;;4977460;28;20026;-73
2023/12/15 04:02:23;;;;;;;25.50;22.85;;;;;;;;;;4987086;28;20044;-71
2023/12/15 04:04:48;;;;;;;19.15;17.10;;;;;;;;;;4986578;28;20458;-71
2023/12/15 04:07:13;;;;;;;17.58;15.77;;;;;;;;;;4976895;28;20450;-72
2023/12/15 04:09:39;;;;;;;15.73;14.23;;;;;;;;;;4987555;28;20093;-71
2023/12/15 04:12:04;;;;;;;16.75;15.15;;;;;;;;;;4991231;28;20022;-72
2023/12/15 04:14:31;;;;;;;15.10;13.50;;;;;;;;;;4988308;28;20026;-73
2023/12/15 04:16:57;;;;;;;23.90;21.48;;;;;;;;;;4990694;28;20587;-73
2023/12/15 04:19:22;;;;;;;24.17;21.63;;;;;;;;;;4987989;28;20113;-73
2023/12/15 04:21:47;;;;;;;20.58;18.58;;;;;;;;;;4989317;28;20033;-71
2023/12/15 04:24:13;;;;;;;19.73;17.63;;;;;;;;;;4989464;28;20022;-73
2023/12/15 04:26:38;;;;;;;42.75;36.40;;;;;;;;;;4988362;28;20030;-72
2023/12/15 04:29:03;;;;;;;27.05;24.27;;;;;;;;;;4978485;28;20089;-73
2023/12/15 04:31:29;;;;;;;14.45;12.95;;;;;;;;;;4984129;28;20073;-72
2023/12/15 04:33:54;;;;;;;23.88;20.00;;;;;;;;;;4980118;28;20342;-71
2023/12/15 04:36:19;;;;;;;33.88;27.48;;;;;;;;;;4989535;28;20026;-72
2023/12/15 04:38:45;;;;;;;46.30;37.88;;;;;;;;;;4986672;28;21047;-71
2023/12/15 04:41:18;;;;;;;71.20;60.78;;;;;;;;;;4986942;28;20152;-73
2023/12/15 04:43:43;;;;;;;37.75;33.95;;;;;;;;;;4988715;28;20499;-72
2023/12/15 04:46:09;;;;;;;46.13;41.40;;;;;;;;;;4987424;28;20026;-72
2023/12/15 04:48:34;;;;;;;45.13;40.50;;;;;;;;;;4987612;28;20350;-71
2023/12/15 04:50:59;;;;;;;38.75;34.65;;;;;;;;;;4991279;28;20030;-73
2023/12/15 04:53:25;;;;;;;32.63;29.05;;;;;;;;;;4990942;28;20435;-72
2023/12/15 04:55:50;;;;;;;31.33;28.33;;;;;;;;;;4990320;28;20532;-72
2023/12/15 04:58:16;;;;;;;33.08;29.88;;;;;;;;;;4983807;28;21178;-73
2023/12/15 05:00:41;;;;;;;34.55;31.23;;;;;;;;;;4972834;28;20030;-72
2023/12/15 05:03:06;;;;;;;31.40;28.20;;;;;;;;;;4973889;28;20645;-72
2023/12/15 05:05:32;;;;;;;26.63;23.92;;;;;;;;;;4986777;28;20030;-71
2023/12/15 05:07:57;;;;;;;24.92;21.75;;;;;;;;;;4985555;28;20053;-71
2023/12/15 05:10:23;;;;;;;24.30;21.80;;;;;;;;;;4989177;28;20034;-71
2023/12/15 05:12:48;;;;;;;21.95;19.63;;;;;;;;;;4987604;28;20017;-73
2023/12/15 05:15:14;;;;;;;20.90;18.80;;;;;;;;;;4985721;28;20108;-73
2023/12/15 05:17:39;;;;;;;22.35;20.08;;;;;;;;;;4987667;28;20369;-73
2023/12/15 05:20:05;;;;;;;23.52;21.02;;;;;;;;;;4986612;28;20064;-75
2023/12/15 05:22:30;;;;;;;24.70;22.10;;;;;;;;;;4988178;28;20151;-75
2023/12/15 05:24:56;;;;;;;21.27;18.95;;;;;;;;;;4970469;28;20037;-74
2023/12/15 05:27:21;;;;;;;24.40;20.77;;;;;;;;;;4972838;28;20506;-71
2023/12/15 05:29:46;;;;;;;30.27;25.88;;;;;;;;;;4970672;28;20527;-72
2023/12/15 05:32:12;;;;;;;35.78;31.35;;;;;;;;;;4969630;28;20409;-71
2023/12/15 05:34:38;;;;;;;25.20;22.63;;;;;;;;;;4967453;28;20887;-71
2023/12/15 05:37:03;;;;;;;21.80;18.83;;;;;;;;;;4973795;28;20132;-72
2023/12/15 05:39:29;;;;;;;20.83;18.63;;;;;;;;;;4968506;28;20031;-73
2023/12/15 05:41:54;;;;;;;21.80;18.92;;;;;;;;;;4969754;28;20100;-72
2023/12/15 05:44:19;;;;;;;26.35;20.63;;;;;;;;;;4972479;28;20073;-72
2023/12/15 05:46:45;;;;;;;29.65;24.95;;;;;;;;;;4972790;28;20092;-71
2023/12/15 05:49:10;;;;;;;24.50;21.42;;;;;;;;;;4970532;28;20038;-71
2023/12/15 05:51:36;;;;;;;22.58;20.17;;;;;;;;;;4978697;28;20037;-71
2023/12/15 05:54:01;;;;;;;24.30;21.67;;;;;;;;;;4990440;28;20021;-70
2023/12/15 05:56:27;;;;;;;65.10;37.53;;;;;;;;;;4962906;28;20069;-71
2023/12/15 05:58:52;;;;;;;63.13;47.78;;;;;;;;;;4983386;28;20057;-72
2023/12/15 06:01:18;;;;;;;55.22;49.38;;;;;;;;;;4981478;28;20045;-72
2023/12/15 06:03:43;;;;;;;60.90;54.33;;;;;;;;;;4981360;28;20027;-70
2023/12/15 06:06:11;;;;;;;34.30;30.63;;;;;;;;;;4980266;28;20469;-70
2023/12/15 06:08:37;;;;;;;30.85;26.55;;;;;;;;;;4982214;28;20056;-69
2023/12/15 06:11:02;;;;;;;37.70;33.90;;;;;;;;;;4978948;28;20160;-69
2023/12/15 06:13:28;;;;;;;36.33;32.63;;;;;;;;;;4981568;28;20026;-71
2023/12/15 06:15:53;;;;;;;33.70;30.45;;;;;;;;;;4974738;28;20099;-73
2023/12/15 06:18:18;;;;;;;20.17;18.33;;;;;;;;;;4975209;28;20121;-70
2023/12/15 06:20:44;;;;;;;39.53;35.58;;;;;;;;;;4973120;28;20554;-70
2023/12/15 06:23:09;;;;;;;25.80;23.10;;;;;;;;;;4977449;28;20029;-72
2023/12/15 06:25:34;;;;;;;21.67;19.50;;;;;;;;;;4974932;28;20041;-72
2023/12/15 06:28:00;;;;;;;23.20;20.90;;;;;;;;;;4978577;28;20030;-70
2023/12/15 06:30:25;;;;;;;19.00;17.10;;;;;;;;;;4979657;28;20034;-71
2023/12/15 06:32:51;;;;;;;19.17;17.15;;;;;;;;;;4985013;28;20026;-71
2023/12/15 06:35:17;;;;;;;25.58;22.98;;;;;;;;;;4980708;28;20101;-72
2023/12/15 06:37:42;;;;;;;23.73;21.33;;;;;;;;;;4989526;28;20032;-70
2023/12/15 06:40:07;;;;;;;30.38;27.13;;;;;;;;;;4983290;28;20030;-72
2023/12/15 06:42:33;;;;;;;24.63;22.08;;;;;;;;;;4987964;28;20037;-70
2023/12/15 06:45:04;;;;;;;24.05;21.45;;;;;;;;;;4983961;28;20026;-71
2023/12/15 06:47:29;;;;;;;23.75;20.70;;;;;;;;;;4980560;28;20837;-70
2023/12/15 06:49:55;;;;;;;77.72;59.63;;;;;;;;;;4981021;28;20516;-70
2023/12/15 06:52:20;;;;;;;67.82;52.75;;;;;;;;;;4987906;28;20423;-73
2023/12/15 06:54:45;;;;;;;32.45;27.48;;;;;;;;;;4988289;28;20038;-73
2023/12/15 06:57:10;;;;;;;33.92;28.20;;;;;;;;;;4990330;28;20117;-71
2023/12/15 06:59:36;;;;;;;56.90;39.28;;;;;;;;;;4988017;28;20119;-71
2023/12/15 07:02:01;;;;;;;102.45;69.65;;;;;;;;;;4988011;28;20709;-72
2023/12/15 07:04:27;;;;;;;265.48;178.32;;;;;;;;;;4991035;28;20610;-72
2023/12/15 07:06:53;;;;;;;43.42;32.88;;;;;;;;;;4990994;28;20038;-73
2023/12/15 07:09:18;;;;;;;31.70;24.15;;;;;;;;;;4989513;28;20061;-71
2023/12/15 07:11:44;;;;;;;29.27;23.45;;;;;;;;;;4990507;28;20034;-71
2023/12/15 07:14:10;;;;;;;28.40;23.02;;;;;;;;;;4989431;28;20033;-72
2023/12/15 07:16:35;;;;;;;15.15;13.63;;;;;;;;;;4989297;28;20054;-72
2023/12/15 07:19:00;;;;;;;26.42;22.58;;;;;;;;;;4991878;28;20022;-72
2023/12/15 07:21:26;;;;;;;42.15;36.45;;;;;;;;;;4988077;28;20026;-72
2023/12/15 07:23:51;;;;;;;38.85;34.85;;;;;;;;;;4991363;28;20084;-73
2023/12/15 07:26:17;;;;;;;53.97;45.88;;;;;;;;;;4990310;28;20040;-71
2023/12/15 07:28:43;;;;;;;51.22;43.80;;;;;;;;;;4987499;28;20040;-72
2023/12/15 07:31:08;;;;;;;42.97;38.33;;;;;;;;;;4980696;28;20038;-70
2023/12/15 07:33:33;;;;;;;25.27;22.67;;;;;;;;;;4975760;28;20026;-72
2023/12/15 07:35:59;;;;;;;27.30;24.55;;;;;;;;;;4972847;28;20027;-73
2023/12/15 07:38:25;;;;;;;31.70;28.30;;;;;;;;;;4974010;28;20038;-71
2023/12/15 07:40:54;;;;;;;33.88;30.23;;;;;;;;;;4972566;28;20030;-72
2023/12/15 07:43:19;;;;;;;49.20;44.00;;;;;;;;;;4976251;28;20027;-72
2023/12/15 07:45:44;;;;;;;42.67;38.00;;;;;;;;;;4975414;28;20032;-71
2023/12/15 07:48:13;;;;;;;44.13;39.33;;;;;;;;;;4973689;28;20041;-74
2023/12/15 07:50:39;;;;;;;61.25;51.15;;;;;;;;;;4973106;28;20268;-71
2023/12/15 07:53:04;;;;;;;101.25;74.22;;;;;;;;;;4977153;28;20540;-72
2023/12/15 07:55:29;;;;;;;73.40;57.28;;;;;;;;;;4991092;28;20022;-72
2023/12/15 07:57:55;;;;;;;87.38;70.75;;;;;;;;;;4990112;28;20426;-71
2023/12/15 08:00:20;;;;;;;103.78;79.10;;;;;;;;;;4988655;28;20426;-71
2023/12/15 08:02:46;;;;;;;104.38;74.43;;;;;;;;;;4989016;28;20038;-72
2023/12/15 08:05:11;;;;;;;87.38;60.65;;;;;;;;;;4988656;28;20606;-72
2023/12/15 08:07:36;;;;;;;75.40;55.10;;;;;;;;;;4990370;28;20093;-73
2023/12/15 08:10:02;;;;;;;80.13;62.33;;;;;;;;;;4989789;28;20026;-73
2023/12/15 08:12:27;;;;;;;52.95;42.40;;;;;;;;;;4974995;28;20456;-73
2023/12/15 08:14:52;;;;;;;49.08;40.20;;;;;;;;;;4986455;28;20033;-74
2023/12/15 08:17:18;;;;;;;54.65;48.22;;;;;;;;;;4986972;28;20049;-73
2023/12/15 08:19:44;;;;;;;56.72;48.13;;;;;;;;;;4988375;28;20026;-72
2023/12/15 08:22:10;;;;;;;66.35;52.90;;;;;;;;;;4987417;28;20057;-71
2023/12/15 08:24:35;;;;;;;57.20;45.92;;;;;;;;;;4977354;28;20109;-71
2023/12/15 08:27:01;;;;;;;61.85;53.15;;;;;;;;;;4978841;28;20084;-75
2023/12/15 08:29:26;;;;;;;50.97;43.47;;;;;;;;;;4988545;28;20034;-71
2023/12/15 08:31:51;;;;;;;59.53;50.55;;;;;;;;;;4987314;28;20026;-74
2023/12/15 08:34:17;;;;;;;73.78;63.55;;;;;;;;;;4976413;28;20034;-72
2023/12/15 08:36:43;;;;;;;56.20;46.75;;;;;;;;;;4975135;28;20031;-73
2023/12/15 08:39:09;;;;;;;93.72;72.05;;;;;;;;;;4989038;28;20042;-71
2023/12/15 08:41:34;;;;;;;108.07;87.53;;;;;;;;;;4987106;28;20383;-73
2023/12/15 08:44:00;;;;;;;79.28;62.78;;;;;;;;;;4979178;28;20441;-71
2023/12/15 08:46:25;;;;;;;89.57;75.22;;;;;;;;;;4985182;28;20040;-72
2023/12/15 08:48:51;;;;;;;118.95;95.00;;;;;;;;;;4984738;28;20034;-74
2023/12/15 08:51:16;;;;;;;89.72;65.07;;;;;;;;;;4983584;28;20036;-71
2023/12/15 08:53:42;;;;;;;61.00;48.72;;;;;;;;;;4986500;28;21207;-71
2023/12/15 08:56:08;;;;;;;52.15;42.65;;;;;;;;;;4983874;28;20041;-71
2023/12/15 08:58:33;;;;;;;30.45;26.60;;;;;;;;;;4984932;28;20029;-71
2023/12/15 09:00:58;;;;;;;126.90;94.75;;;;;;;;;;4985327;28;20048;-72
2023/12/15 09:03:24;;;;;;;91.78;72.50;;;;;;;;;;4985809;28;20056;-71
2023/12/15 09:05:49;;;;;;;74.43;60.03;;;;;;;;;;4969580;28;20034;-73
2023/12/15 09:08:15;;;;;;;55.20;44.97;;;;;;;;;;4983926;28;20445;-73
2023/12/15 09:10:43;;;;;;;34.95;28.52;;;;;;;;;;4984301;28;20097;-71
2023/12/15 09:13:12;;;;;;;33.47;26.40;;;;;;;;;;4986014;28;20460;-72
2023/12/15 09:15:38;;;;;;;40.17;32.20;;;;;;;;;;4983559;28;20029;-71
2023/12/15 09:18:03;;;;;;;37.13;30.15;;;;;;;;;;4983475;28;20330;-73
2023/12/15 09:20:29;;;;;;;39.40;29.73;;;;;;;;;;4984423;28;20355;-74
2023/12/15 09:22:55;;;;;;;38.58;28.55;;;;;;;;;;4982435;28;20025;-72
2023/12/15 09:25:20;;;;;;;33.72;27.20;;;;;;;;;;4984013;28;20338;-72
2023/12/15 09:27:46;;;;;;;45.50;33.20;;;;;;;;;;4985960;28;20531;-71
2023/12/15 09:30:11;;;;;;;38.10;27.50;;;;;;;;;;4983372;28;20175;-73
2023/12/15 09:32:37;;;;;;;37.40;27.48;;;;;;;;;;4984221;28;20030;-72
2023/12/15 09:35:02;;;;;;;56.17;41.70;;;;;;;;;;4969720;28;20398;-71
2023/12/15 09:37:27;;;;;;;47.00;36.60;;;;;;;;;;4973997;28;20030;-73
2023/12/15 09:39:53;;;;;;;53.55;41.25;;;;;;;;;;4971071;28;20015;-71
2023/12/15 09:42:19;;;;;;;37.92;29.63;;;;;;;;;;4973439;28;20030;-72
2023/12/15 09:44:44;;;;;;;72.15;54.22;;;;;;;;;;4990763;28;20341;-71
2023/12/15 09:47:11;;;;;;;86.40;67.07;;;;;;;;;;4989723;28;20045;-72
2023/12/15 09:49:39;;;;;;;82.10;59.63;;;;;;;;;;4989048;28;20065;-71
2023/12/15 09:52:05;;;;;;;37.08;29.20;;;;;;;;;;4988749;28;20022;-74
2023/12/15 09:54:31;;;;;;;29.55;23.08;;;;;;;;;;4988881;28;21135;-72
2023/12/15 09:56:56;;;;;;;32.05;25.75;;;;;;;;;;4987800;28;20157;-74
2023/12/15 09:59:22;;;;;;;59.83;44.63;;;;;;;;;;4989663;28;20152;-73
2023/12/15 10:01:47;;;;;;;33.75;27.67;;;;;;;;;;4989467;28;20037;-72
2023/12/15 10:04:13;;;;;;;46.55;30.80;;;;;;;;;;4990884;28;20026;-71
2023/12/15 10:06:38;;;;;;;56.17;37.97;;;;;;;;;;4991909;28;20476;-71
2023/12/15 10:09:16;;;;;;;34.97;28.30;;;;;;;;;;4990836;28;20050;-73
2023/12/15 10:11:43;;;;;;;33.70;25.90;;;;;;;;;;4991404;28;20036;-73
2023/12/15 10:14:09;;;;;;;57.40;42.78;;;;;;;;;;4991598;28;20058;-72
2023/12/15 10:16:35;;;;;;;94.45;64.63;;;;;;;;;;4989836;28;20073;-72
2023/12/15 10:19:05;;;;;;;46.17;33.28;;;;;;;;;;4992416;28;20097;-72
2023/12/15 10:21:31;;;;;;;93.28;61.47;;;;;;;;;;4989871;28;20053;-73
2023/12/15 10:23:56;;;;;;;43.03;32.08;;;;;;;;;;4990725;28;20030;-72
2023/12/15 10:26:22;;;;;;;57.63;41.80;;;;;;;;;;4992825;28;20044;-72
2023/12/15 10:28:48;;;;;;;174.48;97.57;;;;;;;;;;4993803;28;20025;-73
2023/12/15 10:31:13;;;;;;;103.32;65.03;;;;;;;;;;4981650;28;20337;-72
2023/12/15 10:33:40;;;;;;;42.35;30.70;;;;;;;;;;4989561;28;20029;-73
2023/12/15 10:36:07;;;;;;;33.35;26.15;;;;;;;;;;4990374;28;20048;-72
2023/12/15 10:38:32;;;;;;;40.35;27.70;;;;;;;;;;4993795;28;20109;-72
2023/12/15 10:40:58;;;;;;;38.08;26.92;;;;;;;;;;4992053;28;20125;-73
2023/12/15 10:43:23;;;;;;;20.27;16.88;;;;;;;;;;4989896;28;20098;-73
2023/12/15 10:45:51;;;;;;;18.73;15.38;;;;;;;;;;4989810;28;20538;-73
2023/12/15 10:48:17;;;;;;;28.55;21.92;;;;;;;;;;4990919;28;20065;-73
2023/12/15 10:50:45;;;;;;;28.65;21.52;;;;;;;;;;4988390;28;20036;-72
2023/12/15 10:53:12;;;;;;;28.83;24.27;;;;;;;;;;4979501;28;20022;-73
2023/12/15 10:55:38;;;;;;;32.45;26.75;;;;;;;;;;4979086;28;20113;-71
2023/12/15 10:58:06;;;;;;;12.30;11.00;;;;;;;;;;4979329;28;20503;-71
2023/12/15 11:00:32;;;;;;;9.85;8.85;;;;;;;;;;4988610;28;20061;-71
2023/12/15 11:02:58;;;;;;;13.25;11.85;;;;;;;;;;4982270;28;20107;-72
2023/12/15 11:05:26;;;;;;;15.98;14.27;;;;;;;;;;4979576;28;20041;-74
2023/12/15 11:07:52;;;;;;;61.63;44.85;;;;;;;;;;4938467;28;1265104;-72
2023/12/15 11:10:18;;;;;;;37.30;28.85;;;;;;;;;;4965514;28;20039;-74
2023/12/15 11:12:43;;;;;;;27.75;24.45;;;;;;;;;;4978188;28;20027;-72
2023/12/15 11:15:09;;;;;;;14.05;12.55;;;;;;;;;;4982678;28;20041;-73
2023/12/15 11:17:43;;;;;;;32.28;27.67;;;;;;;;;;4977243;28;20025;-71
2023/12/15 11:20:12;;;;;;;27.70;22.83;;;;;;;;;;4980221;28;20030;-70
2023/12/15 11:22:41;;;;;;;26.60;22.63;;;;;;;;;;4963951;28;20059;-71
2023/12/15 11:25:08;;;;;;;39.17;30.73;;;;;;;;;;4981523;28;20109;-72
2023/12/15 11:27:53;;;;;;;45.38;35.50;;;;;;;;;;4974217;28;20026;-72
2023/12/15 11:30:28;;;;;;;33.03;28.17;;;;;;;;;;4975288;28;20056;-72
2023/12/15 11:32:55;;;;;;;32.22;28.70;;;;;;;;;;4973749;28;20117;-73
2023/12/15 11:35:47;;;;;;;29.33;25.65;;;;;;;;;;4980623;28;20117;-74
2023/12/15 11:38:13;;;;;;;25.70;21.98;;;;;;;;;;4973535;28;20046;-72
2023/12/15 11:40:39;;;;;;;24.10;21.35;;;;;;;;;;4977142;28;20026;-71
2023/12/15 11:43:04;;;;;;;32.17;28.58;;;;;;;;;;4975912;28;20057;-70
2023/12/15 11:45:30;;;;;;;17.25;15.52;;;;;;;;;;4974463;28;20031;-75
2023/12/15 11:47:55;;;;;;;22.27;20.02;;;;;;;;;;4974167;28;20029;-73
2023/12/15 11:50:21;;;;;;;26.08;23.00;;;;;;;;;;4975889;28;20068;-72
2023/12/15 11:52:47;;;;;;;20.85;18.35;;;;;;;;;;4973490;28;20036;-71
2023/12/15 11:55:13;;;;;;;11.88;10.27;;;;;;;;;;4977100;28;20026;-72
2023/12/15 11:57:38;;;;;;;12.52;11.23;;;;;;;;;;4974681;28;20764;-71
2023/12/15 12:00:04;;;;;;;18.77;16.83;;;;;;;;;;4973088;28;21923;-74
2023/12/15 12:02:29;;;;;;;17.48;12.40;;;;;;;;;;4972880;28;20346;-73
2023/12/15 12:04:55;;;;;;;18.95;16.17;;;;;;;;;;4973946;28;20544;-72
2023/12/15 12:07:20;;;;;;;26.67;23.80;;;;;;;;;;4989541;28;20030;-70
2023/12/15 12:09:46;;;;;;;55.75;45.88;;;;;;;;;;4993968;28;20354;-74
2023/12/15 12:12:12;;;;;;;49.88;43.97;;;;;;;;;;4992056;28;20408;-71
2023/12/15 12:14:41;;;;;;;29.60;25.75;;;;;;;;;;4992743;28;20031;-73
2023/12/15 12:17:07;;;;;;;24.30;20.38;;;;;;;;;;4991078;28;20033;-73
2023/12/15 12:19:38;;;;;;;27.63;23.55;;;;;;;;;;4992368;28;20040;-72
2023/12/15 12:22:03;;;;;;;24.42;21.92;;;;;;;;;;4983140;28;20876;-73
2023/12/15 12:24:29;;;;;;;18.85;16.92;;;;;;;;;;4979983;28;20034;-72
2023/12/15 12:26:54;;;;;;;21.88;18.65;;;;;;;;;;4979257;28;20125;-72
2023/12/15 12:29:19;;;;;;;40.47;34.05;;;;;;;;;;4981927;28;20096;-71
2023/12/15 12:31:45;;;;;;;30.77;25.08;;;;;;;;;;4986228;28;23641;-72
2023/12/15 12:34:10;;;;;;;25.20;21.70;;;;;;;;;;4975469;28;20026;-72
2023/12/15 12:36:35;;;;;;;12.27;11.07;;;;;;;;;;4982264;28;20143;-73
2023/12/15 12:39:01;;;;;;;13.85;12.45;;;;;;;;;;4961113;28;20033;-71
2023/12/15 12:41:26;;;;;;;13.23;11.93;;;;;;;;;;4979052;28;20064;-71
2023/12/15 12:43:52;;;;;;;13.43;11.95;;;;;;;;;;4978727;28;20113;-71
2023/12/15 12:46:17;;;;;;;14.57;13.07;;;;;;;;;;4974813;28;20050;-70
2023/12/15 12:48:46;;;;;;;10.05;9.02;;;;;;;;;;4983704;28;20449;-69
2023/12/15 12:51:11;;;;;;;10.93;9.90;;;;;;;;;;4980098;28;20030;-71
2023/12/15 12:53:37;;;;;;;10.20;9.20;;;;;;;;;;4969727;28;20323;-70
2023/12/15 12:56:04;;;;;;;10.40;9.40;;;;;;;;;;4977101;28;20030;-72
2023/12/15 12:58:30;;;;;;;14.57;13.18;;;;;;;;;;4982233;28;20034;-71
2023/12/15 13:00:55;;;;;;;12.45;11.25;;;;;;;;;;4978343;28;20030;-71
2023/12/15 13:03:21;;;;;;;15.40;13.10;;;;;;;;;;4974649;28;20453;-71
2023/12/15 13:05:46;;;;;;;16.60;14.90;;;;;;;;;;4982398;28;20037;-69
2023/12/15 13:08:12;;;;;;;17.38;15.57;;;;;;;;;;4959421;28;20066;-70
2023/12/15 13:10:37;;;;;;;21.77;19.67;;;;;;;;;;4957703;28;20034;-70
2023/12/15 13:13:02;;;;;;;19.92;17.63;;;;;;;;;;4962822;28;20070;-69
2023/12/15 13:15:28;;;;;;;17.75;15.70;;;;;;;;;;4956719;28;20053;-70
2023/12/15 13:17:59;;;;;;;14.40;12.85;;;;;;;;;;4963241;28;20041;-70
2023/12/15 13:20:24;;;;;;;12.65;11.45;;;;;;;;;;4966240;28;20113;-72
2023/12/15 13:22:50;;;;;;;14.80;13.20;;;;;;;;;;4961631;28;20510;-73
2023/12/15 13:25:15;;;;;;;15.35;12.95;;;;;;;;;;4955691;28;20038;-71
2023/12/15 13:27:41;;;;;;;12.65;11.35;;;;;;;;;;4963776;28;20036;-71
2023/12/15 13:30:09;;;;;;;11.07;9.98;;;;;;;;;;4961527;28;20033;-71
2023/12/15 13:32:34;;;;;;;10.52;9.43;;;;;;;;;;4963349;28;20133;-71
2023/12/15 13:35:00;;;;;;;14.30;11.90;;;;;;;;;;4963113;28;20509;-71
2023/12/15 13:37:25;;;;;;;10.82;9.73;;;;;;;;;;4962660;28;20041;-72
2023/12/15 13:39:51;;;;;;;11.60;10.48;;;;;;;;;;4964172;28;20110;-72
2023/12/15 13:42:16;;;;;;;11.38;10.35;;;;;;;;;;4962401;28;20041;-71
2023/12/15 13:44:41;;;;;;;13.57;12.18;;;;;;;;;;4964509;28;20037;-70
2023/12/15 13:47:07;;;;;;;12.68;11.38;;;;;;;;;;4972690;28;20041;-71
2023/12/15 13:49:32;;;;;;;16.95;14.05;;;;;;;;;;4952308;28;20042;-70
2023/12/15 13:51:59;;;;;;;14.90;13.30;;;;;;;;;;4955335;28;20113;-71
2023/12/15 13:54:24;;;;;;;34.85;28.45;;;;;;;;;;4958181;28;20026;-73
2023/12/15 13:56:51;;;;;;;23.20;20.55;;;;;;;;;;4952982;28;20042;-71
2023/12/15 13:59:16;;;;;;;22.08;19.52;;;;;;;;;;4952597;28;20435;-71
2023/12/15 14:01:42;;;;;;;18.95;16.73;;;;;;;;;;4951439;28;20090;-71
2023/12/15 14:04:08;;;;;;;24.40;20.08;;;;;;;;;;4971985;28;20472;-71
2023/12/15 14:06:33;;;;;;;24.95;20.27;;;;;;;;;;4978111;28;20030;-72
2023/12/15 14:08:59;;;;;;;36.45;27.90;;;;;;;;;;4991207;28;20131;-71